sensor_id;sensor_type;location;lat;lon;timestamp;temperature;humidity
50067;DHT22;35952;52.524;13.340;2023-08-30T00:02:17;15.40;99.90
50067;DHT22;35952;52.524;13.340;2023-08-30T00:04:42;15.40;99.90
50067;DHT22;35952;52.524;13.340;2023-08-30T00:07:08;15.40;99.90
50067;DHT22;35952;52.524;13.340;2023-08-30T00:09:34;15.40;99.90
50067;DHT22;35952;52.524;13.340;2023-08-30T00:12:01;15.40;99.90
50067;DHT22;35952;52.524;13.340;2023-08-30T00:14:27;15.30;99.90
50067;DHT22;35952;52.524;13.340;2023-08-30T00:16:52;15.40;99.90
50067;DHT22;35952;52.524;13.340;2023-08-30T00:19:18;15.40;99.90
50067;DHT22;35952;52.524;13.340;2023-08-30T00:21:43;15.40;99.90
50067;DHT22;35952;52.524;13.340;2023-08-30T00:24:09;15.40;99.90
50067;DHT22;35952;52.524;13.340;2023-08-30T00:26:35;15.40;99.90
50067;DHT22;35952;52.524;13.340;2023-08-30T00:29:00;15.30;99.90
50067;DHT22;35952;52.524;13.340;2023-08-30T00:31:26;15.30;99.90
50067;DHT22;35952;52.524;13.340;2023-08-30T00:33:51;15.30;99.90
50067;DHT22;35952;52.524;13.340;2023-08-30T00:36:17;15.30;99.90
50067;DHT22;35952;52.524;13.340;2023-08-30T00:38:43;15.20;99.90
50067;DHT22;35952;52.524;13.340;2023-08-30T00:41:09;15.30;99.90
50067;DHT22;35952;52.524;13.340;2023-08-30T00:43:35;15.30;99.90
50067;DHT22;35952;52.524;13.340;2023-08-30T00:46:00;15.30;99.90
50067;DHT22;35952;52.524;13.340;2023-08-30T00:48:26;15.30;99.90
50067;DHT22;35952;52.524;13.340;2023-08-30T00:50:52;15.30;99.90
50067;DHT22;35952;52.524;13.340;2023-08-30T00:53:17;15.30;99.90
50067;DHT22;35952;52.524;13.340;2023-08-30T00:55:43;15.30;99.90
50067;DHT22;35952;52.524;13.340;2023-08-30T00:58:10;15.20;99.90
50067;DHT22;35952;52.524;13.340;2023-08-30T01:00:36;15.20;99.90
50067;DHT22;35952;52.524;13.340;2023-08-30T01:03:03;15.20;99.90
50067;DHT22;35952;52.524;13.340;2023-08-30T01:05:30;15.20;99.90
50067;DHT22;35952;52.524;13.340;2023-08-30T01:07:56;15.20;99.90
50067;DHT22;35952;52.524;13.340;2023-08-30T01:10:31;15.20;99.90
50067;DHT22;35952;52.524;13.340;2023-08-30T01:13:08;15.20;99.90
50067;DHT22;35952;52.524;13.340;2023-08-30T01:15:34;15.20;99.90
50067;DHT22;35952;52.524;13.340;2023-08-30T01:18:02;15.20;99.90
50067;DHT22;35952;52.524;13.340;2023-08-30T01:20:30;15.30;99.90
50067;DHT22;35952;52.524;13.340;2023-08-30T01:23:06;15.20;99.90
50067;DHT22;35952;52.524;13.340;2023-08-30T01:28:13;15.20;99.90
50067;DHT22;35952;52.524;13.340;2023-08-30T01:30:42;15.20;99.90
50067;DHT22;35952;52.524;13.340;2023-08-30T01:33:09;15.20;99.90
50067;DHT22;35952;52.524;13.340;2023-08-30T01:35:35;15.30;99.90
50067;DHT22;35952;52.524;13.340;2023-08-30T01:38:03;15.30;99.90
50067;DHT22;35952;52.524;13.340;2023-08-30T01:40:34;15.20;99.90
50067;DHT22;35952;52.524;13.340;2023-08-30T01:43:01;15.20;99.90
50067;DHT22;35952;52.524;13.340;2023-08-30T01:45:29;15.20;99.90
50067;DHT22;35952;52.524;13.340;2023-08-30T01:47:56;15.20;99.90
50067;DHT22;35952;52.524;13.340;2023-08-30T01:50:22;15.10;99.90
50067;DHT22;35952;52.524;13.340;2023-08-30T01:52:47;15.10;99.90
50067;DHT22;35952;52.524;13.340;2023-08-30T01:55:14;15.10;99.90
50067;DHT22;35952;52.524;13.340;2023-08-30T01:57:40;15.10;99.90
50067;DHT22;35952;52.524;13.340;2023-08-30T02:00:06;15.10;99.90
50067;DHT22;35952;52.524;13.340;2023-08-30T02:02:33;15.10;99.90
50067;DHT22;35952;52.524;13.340;2023-08-30T02:04:58;15.10;99.90
50067;DHT22;35952;52.524;13.340;2023-08-30T02:07:34;15.10;99.90
50067;DHT22;35952;52.524;13.340;2023-08-30T02:10:07;15.10;99.90
50067;DHT22;35952;52.524;13.340;2023-08-30T02:12:42;15.10;99.90
50067;DHT22;35952;52.524;13.340;2023-08-30T02:15:10;15.10;99.90
50067;DHT22;35952;52.524;13.340;2023-08-30T02:17:37;15.10;99.90
50067;DHT22;35952;52.524;13.340;2023-08-30T02:20:05;14.90;99.90
50067;DHT22;35952;52.524;13.340;2023-08-30T02:22:31;15.00;99.90
50067;DHT22;35952;52.524;13.340;2023-08-30T02:24:57;15.00;99.90
50067;DHT22;35952;52.524;13.340;2023-08-30T02:27:23;14.80;99.90
50067;DHT22;35952;52.524;13.340;2023-08-30T02:29:48;14.90;99.90
50067;DHT22;35952;52.524;13.340;2023-08-30T02:32:14;14.90;99.90
50067;DHT22;35952;52.524;13.340;2023-08-30T02:34:42;14.90;99.90
50067;DHT22;35952;52.524;13.340;2023-08-30T02:37:07;14.90;99.90
50067;DHT22;35952;52.524;13.340;2023-08-30T02:39:33;14.90;99.90
50067;DHT22;35952;52.524;13.340;2023-08-30T02:41:58;14.90;99.90
50067;DHT22;35952;52.524;13.340;2023-08-30T02:44:24;14.90;99.90
50067;DHT22;35952;52.524;13.340;2023-08-30T02:46:49;14.90;99.90
50067;DHT22;35952;52.524;13.340;2023-08-30T02:49:15;14.90;99.90
50067;DHT22;35952;52.524;13.340;2023-08-30T02:51:40;14.90;99.90
50067;DHT22;35952;52.524;13.340;2023-08-30T02:54:06;14.80;99.90
50067;DHT22;35952;52.524;13.340;2023-08-30T02:56:32;14.90;99.90
50067;DHT22;35952;52.524;13.340;2023-08-30T02:58:57;14.90;99.90
50067;DHT22;35952;52.524;13.340;2023-08-30T03:01:23;14.90;99.90
50067;DHT22;35952;52.524;13.340;2023-08-30T03:03:48;14.90;99.90
50067;DHT22;35952;52.524;13.340;2023-08-30T03:06:13;14.90;99.90
50067;DHT22;35952;52.524;13.340;2023-08-30T03:08:39;14.80;99.90
50067;DHT22;35952;52.524;13.340;2023-08-30T03:11:12;14.90;99.90
50067;DHT22;35952;52.524;13.340;2023-08-30T03:13:38;14.90;99.90
50067;DHT22;35952;52.524;13.340;2023-08-30T03:16:15;14.80;99.90
50067;DHT22;35952;52.524;13.340;2023-08-30T03:18:42;14.80;99.90
50067;DHT22;35952;52.524;13.340;2023-08-30T03:21:08;14.80;99.90
50067;DHT22;35952;52.524;13.340;2023-08-30T03:23:34;14.90;99.90
50067;DHT22;35952;52.524;13.340;2023-08-30T03:26:11;14.80;99.90
50067;DHT22;35952;52.524;13.340;2023-08-30T03:28:37;14.70;99.90
50067;DHT22;35952;52.524;13.340;2023-08-30T03:31:13;14.70;99.90
50067;DHT22;35952;52.524;13.340;2023-08-30T03:33:39;14.80;99.90
50067;DHT22;35952;52.524;13.340;2023-08-30T03:36:07;14.80;99.90
50067;DHT22;35952;52.524;13.340;2023-08-30T03:38:33;14.80;99.90
50067;DHT22;35952;52.524;13.340;2023-08-30T03:40:59;14.80;99.90
50067;DHT22;35952;52.524;13.340;2023-08-30T03:43:24;14.70;99.90
50067;DHT22;35952;52.524;13.340;2023-08-30T03:45:50;14.70;99.90
50067;DHT22;35952;52.524;13.340;2023-08-30T03:48:15;14.80;99.90
50067;DHT22;35952;52.524;13.340;2023-08-30T03:50:41;14.70;99.90
50067;DHT22;35952;52.524;13.340;2023-08-30T03:53:06;14.60;99.90
50067;DHT22;35952;52.524;13.340;2023-08-30T03:55:32;14.70;99.90
50067;DHT22;35952;52.524;13.340;2023-08-30T03:57:57;14.60;99.90
50067;DHT22;35952;52.524;13.340;2023-08-30T04:00:23;14.70;99.90
50067;DHT22;35952;52.524;13.340;2023-08-30T04:02:48;14.70;99.90
50067;DHT22;35952;52.524;13.340;2023-08-30T04:05:14;14.70;99.90
50067;DHT22;35952;52.524;13.340;2023-08-30T04:07:40;14.70;99.90
50067;DHT22;35952;52.524;13.340;2023-08-30T04:10:06;14.70;99.90
50067;DHT22;35952;52.524;13.340;2023-08-30T04:12:33;14.80;99.90
50067;DHT22;35952;52.524;13.340;2023-08-30T04:15:00;14.70;99.90
50067;DHT22;35952;52.524;13.340;2023-08-30T04:17:26;14.70;99.90
50067;DHT22;35952;52.524;13.340;2023-08-30T04:19:52;14.70;99.90
50067;DHT22;35952;52.524;13.340;2023-08-30T04:22:18;14.70;99.90
50067;DHT22;35952;52.524;13.340;2023-08-30T04:24:45;14.60;99.90
50067;DHT22;35952;52.524;13.340;2023-08-30T04:27:11;14.70;99.90
50067;DHT22;35952;52.524;13.340;2023-08-30T04:29:36;14.70;99.90
50067;DHT22;35952;52.524;13.340;2023-08-30T04:32:02;14.70;99.90
50067;DHT22;35952;52.524;13.340;2023-08-30T04:34:27;14.70;99.90
50067;DHT22;35952;52.524;13.340;2023-08-30T04:36:53;14.70;99.90
50067;DHT22;35952;52.524;13.340;2023-08-30T04:39:18;14.80;99.90
50067;DHT22;35952;52.524;13.340;2023-08-30T04:41:44;14.80;99.90
50067;DHT22;35952;52.524;13.340;2023-08-30T04:44:10;14.80;99.90
50067;DHT22;35952;52.524;13.340;2023-08-30T04:46:35;14.80;99.90
50067;DHT22;35952;52.524;13.340;2023-08-30T04:49:01;14.80;99.90
50067;DHT22;35952;52.524;13.340;2023-08-30T04:51:27;14.80;99.90
50067;DHT22;35952;52.524;13.340;2023-08-30T04:53:52;14.80;99.90
50067;DHT22;35952;52.524;13.340;2023-08-30T04:56:18;14.80;99.90
50067;DHT22;35952;52.524;13.340;2023-08-30T04:58:43;14.90;99.90
50067;DHT22;35952;52.524;13.340;2023-08-30T05:01:09;14.90;99.90
50067;DHT22;35952;52.524;13.340;2023-08-30T05:03:36;14.90;99.90
50067;DHT22;35952;52.524;13.340;2023-08-30T05:06:02;14.90;99.90
50067;DHT22;35952;52.524;13.340;2023-08-30T05:08:28;15.00;99.90
50067;DHT22;35952;52.524;13.340;2023-08-30T05:10:54;15.10;99.90
50067;DHT22;35952;52.524;13.340;2023-08-30T05:13:20;15.10;99.90
50067;DHT22;35952;52.524;13.340;2023-08-30T05:15:45;15.10;99.90
50067;DHT22;35952;52.524;13.340;2023-08-30T05:18:11;15.30;99.90
50067;DHT22;35952;52.524;13.340;2023-08-30T05:20:36;15.30;99.90
50067;DHT22;35952;52.524;13.340;2023-08-30T05:23:02;15.40;99.90
50067;DHT22;35952;52.524;13.340;2023-08-30T05:25:28;15.40;99.90
50067;DHT22;35952;52.524;13.340;2023-08-30T05:27:53;15.60;99.90
50067;DHT22;35952;52.524;13.340;2023-08-30T05:30:19;15.70;99.90
50067;DHT22;35952;52.524;13.340;2023-08-30T05:32:45;15.70;99.90
50067;DHT22;35952;52.524;13.340;2023-08-30T05:35:10;15.80;99.90
50067;DHT22;35952;52.524;13.340;2023-08-30T05:37:36;15.80;99.90
50067;DHT22;35952;52.524;13.340;2023-08-30T05:40:02;15.80;99.90
50067;DHT22;35952;52.524;13.340;2023-08-30T05:42:28;15.80;99.90
50067;DHT22;35952;52.524;13.340;2023-08-30T05:44:54;15.80;99.90
50067;DHT22;35952;52.524;13.340;2023-08-30T05:47:21;15.80;99.90
50067;DHT22;35952;52.524;13.340;2023-08-30T05:49:47;15.90;99.90
50067;DHT22;35952;52.524;13.340;2023-08-30T05:52:14;15.90;99.90
50067;DHT22;35952;52.524;13.340;2023-08-30T05:54:40;15.90;99.90
50067;DHT22;35952;52.524;13.340;2023-08-30T05:57:07;16.00;99.90
50067;DHT22;35952;52.524;13.340;2023-08-30T05:59:33;16.00;99.90
50067;DHT22;35952;52.524;13.340;2023-08-30T06:02:00;16.00;99.90
50067;DHT22;35952;52.524;13.340;2023-08-30T06:04:26;16.10;99.90
50067;DHT22;35952;52.524;13.340;2023-08-30T06:06:51;16.10;99.90
50067;DHT22;35952;52.524;13.340;2023-08-30T06:09:17;16.20;99.90
50067;DHT22;35952;52.524;13.340;2023-08-30T06:11:42;16.20;99.90
50067;DHT22;35952;52.524;13.340;2023-08-30T06:14:08;16.20;99.90
50067;DHT22;35952;52.524;13.340;2023-08-30T06:16:33;16.30;99.90
50067;DHT22;35952;52.524;13.340;2023-08-30T06:18:59;16.30;99.90
50067;DHT22;35952;52.524;13.340;2023-08-30T06:21:25;16.40;99.90
50067;DHT22;35952;52.524;13.340;2023-08-30T06:23:51;16.40;99.90
50067;DHT22;35952;52.524;13.340;2023-08-30T06:26:16;16.40;99.90
50067;DHT22;35952;52.524;13.340;2023-08-30T06:28:42;16.40;99.90
50067;DHT22;35952;52.524;13.340;2023-08-30T06:31:08;16.40;99.90
50067;DHT22;35952;52.524;13.340;2023-08-30T06:33:33;16.50;99.90
50067;DHT22;35952;52.524;13.340;2023-08-30T06:35:59;16.50;99.90
50067;DHT22;35952;52.524;13.340;2023-08-30T06:38:24;16.50;99.90
50067;DHT22;35952;52.524;13.340;2023-08-30T06:40:50;16.60;99.90
50067;DHT22;35952;52.524;13.340;2023-08-30T06:43:15;16.60;99.90
50067;DHT22;35952;52.524;13.340;2023-08-30T06:45:41;16.60;99.90
50067;DHT22;35952;52.524;13.340;2023-08-30T06:48:07;16.70;99.90
50067;DHT22;35952;52.524;13.340;2023-08-30T06:50:33;16.70;99.90
50067;DHT22;35952;52.524;13.340;2023-08-30T06:52:59;16.80;99.90
50067;DHT22;35952;52.524;13.340;2023-08-30T06:55:24;16.80;99.90
50067;DHT22;35952;52.524;13.340;2023-08-30T06:57:50;16.90;99.90
50067;DHT22;35952;52.524;13.340;2023-08-30T07:00:16;16.80;99.90
50067;DHT22;35952;52.524;13.340;2023-08-30T07:02:42;16.90;99.90
50067;DHT22;35952;52.524;13.340;2023-08-30T07:05:11;16.90;99.90
50067;DHT22;35952;52.524;13.340;2023-08-30T07:07:37;17.00;99.90
50067;DHT22;35952;52.524;13.340;2023-08-30T07:10:03;17.00;99.90
50067;DHT22;35952;52.524;13.340;2023-08-30T07:12:28;17.00;99.90
50067;DHT22;35952;52.524;13.340;2023-08-30T07:14:54;17.10;99.90
50067;DHT22;35952;52.524;13.340;2023-08-30T07:17:20;17.20;99.90
50067;DHT22;35952;52.524;13.340;2023-08-30T07:19:45;17.20;99.90
50067;DHT22;35952;52.524;13.340;2023-08-30T07:22:11;17.30;99.90
50067;DHT22;35952;52.524;13.340;2023-08-30T07:24:36;17.30;99.90
50067;DHT22;35952;52.524;13.340;2023-08-30T07:27:02;17.40;99.90
50067;DHT22;35952;52.524;13.340;2023-08-30T07:29:28;17.50;99.90
50067;DHT22;35952;52.524;13.340;2023-08-30T07:31:53;17.50;99.90
50067;DHT22;35952;52.524;13.340;2023-08-30T07:34:20;17.50;99.90
50067;DHT22;35952;52.524;13.340;2023-08-30T07:36:46;17.50;99.90
50067;DHT22;35952;52.524;13.340;2023-08-30T07:39:11;17.50;99.90
50067;DHT22;35952;52.524;13.340;2023-08-30T07:41:37;17.50;99.90
50067;DHT22;35952;52.524;13.340;2023-08-30T07:44:02;17.40;99.90
50067;DHT22;35952;52.524;13.340;2023-08-30T07:46:28;17.40;99.90
50067;DHT22;35952;52.524;13.340;2023-08-30T07:48:54;17.40;99.90
50067;DHT22;35952;52.524;13.340;2023-08-30T07:51:20;17.30;99.90
50067;DHT22;35952;52.524;13.340;2023-08-30T07:53:46;17.30;99.90
50067;DHT22;35952;52.524;13.340;2023-08-30T07:56:11;17.30;99.90
50067;DHT22;35952;52.524;13.340;2023-08-30T07:58:37;17.30;99.90
50067;DHT22;35952;52.524;13.340;2023-08-30T08:01:02;17.20;99.90
50067;DHT22;35952;52.524;13.340;2023-08-30T08:03:28;17.30;99.90
50067;DHT22;35952;52.524;13.340;2023-08-30T08:05:54;17.30;99.90
50067;DHT22;35952;52.524;13.340;2023-08-30T08:08:19;17.30;99.90
50067;DHT22;35952;52.524;13.340;2023-08-30T08:10:45;17.20;99.90
50067;DHT22;35952;52.524;13.340;2023-08-30T08:13:10;17.30;99.90
50067;DHT22;35952;52.524;13.340;2023-08-30T08:15:38;17.40;99.90
50067;DHT22;35952;52.524;13.340;2023-08-30T08:18:04;17.50;99.90
50067;DHT22;35952;52.524;13.340;2023-08-30T08:20:29;17.50;99.90
50067;DHT22;35952;52.524;13.340;2023-08-30T08:22:55;17.50;99.90
50067;DHT22;35952;52.524;13.340;2023-08-30T08:25:21;17.60;99.90
50067;DHT22;35952;52.524;13.340;2023-08-30T08:27:49;17.50;99.90
50067;DHT22;35952;52.524;13.340;2023-08-30T08:30:14;17.60;99.90
50067;DHT22;35952;52.524;13.340;2023-08-30T08:32:40;17.60;99.90
50067;DHT22;35952;52.524;13.340;2023-08-30T08:35:05;17.40;99.90
50067;DHT22;35952;52.524;13.340;2023-08-30T08:37:31;17.50;99.90
50067;DHT22;35952;52.524;13.340;2023-08-30T08:39:57;17.80;99.90
50067;DHT22;35952;52.524;13.340;2023-08-30T08:42:23;17.90;99.90
50067;DHT22;35952;52.524;13.340;2023-08-30T08:44:53;18.10;99.90
50067;DHT22;35952;52.524;13.340;2023-08-30T08:47:20;18.30;99.90
50067;DHT22;35952;52.524;13.340;2023-08-30T08:49:47;18.50;99.90
50067;DHT22;35952;52.524;13.340;2023-08-30T08:52:14;18.50;99.90
50067;DHT22;35952;52.524;13.340;2023-08-30T08:54:40;18.60;99.90
50067;DHT22;35952;52.524;13.340;2023-08-30T08:57:07;18.60;99.90
50067;DHT22;35952;52.524;13.340;2023-08-30T08:59:33;18.70;99.90
50067;DHT22;35952;52.524;13.340;2023-08-30T09:02:00;19.00;99.90
50067;DHT22;35952;52.524;13.340;2023-08-30T09:04:26;19.20;99.90
50067;DHT22;35952;52.524;13.340;2023-08-30T09:06:54;19.20;99.90
50067;DHT22;35952;52.524;13.340;2023-08-30T09:09:20;19.20;99.90
50067;DHT22;35952;52.524;13.340;2023-08-30T09:11:45;19.20;99.90
50067;DHT22;35952;52.524;13.340;2023-08-30T09:14:11;19.20;99.90
50067;DHT22;35952;52.524;13.340;2023-08-30T09:16:36;19.20;99.90
50067;DHT22;35952;52.524;13.340;2023-08-30T09:19:03;19.10;99.90
50067;DHT22;35952;52.524;13.340;2023-08-30T09:21:29;19.70;99.90
50067;DHT22;35952;52.524;13.340;2023-08-30T09:24:06;20.20;99.90
50067;DHT22;35952;52.524;13.340;2023-08-30T09:26:33;20.70;99.90
50067;DHT22;35952;52.524;13.340;2023-08-30T09:29:06;21.00;99.90
50067;DHT22;35952;52.524;13.340;2023-08-30T09:31:36;21.50;99.90
50067;DHT22;35952;52.524;13.340;2023-08-30T09:34:03;21.50;99.90
50067;DHT22;35952;52.524;13.340;2023-08-30T09:36:39;21.60;99.90
50067;DHT22;35952;52.524;13.340;2023-08-30T09:39:12;22.50;99.90
50067;DHT22;35952;52.524;13.340;2023-08-30T09:41:45;22.90;99.90
50067;DHT22;35952;52.524;13.340;2023-08-30T09:46:44;22.90;99.90
50067;DHT22;35952;52.524;13.340;2023-08-30T09:49:11;22.70;99.90
50067;DHT22;35952;52.524;13.340;2023-08-30T09:51:39;22.40;99.90
50067;DHT22;35952;52.524;13.340;2023-08-30T09:54:12;22.30;99.90
50067;DHT22;35952;52.524;13.340;2023-08-30T09:56:38;22.20;99.90
50067;DHT22;35952;52.524;13.340;2023-08-30T09:59:05;22.10;99.90
50067;DHT22;35952;52.524;13.340;2023-08-30T10:01:31;21.80;99.90
50067;DHT22;35952;52.524;13.340;2023-08-30T10:03:57;21.60;99.90
50067;DHT22;35952;52.524;13.340;2023-08-30T10:06:24;21.40;99.90
50067;DHT22;35952;52.524;13.340;2023-08-30T10:08:51;21.40;99.90
50067;DHT22;35952;52.524;13.340;2023-08-30T10:11:18;21.20;99.90
50067;DHT22;35952;52.524;13.340;2023-08-30T10:13:44;21.40;99.90
50067;DHT22;35952;52.524;13.340;2023-08-30T10:16:15;21.50;99.90
50067;DHT22;35952;52.524;13.340;2023-08-30T10:18:47;21.40;99.90
50067;DHT22;35952;52.524;13.340;2023-08-30T10:21:14;21.30;99.90
50067;DHT22;35952;52.524;13.340;2023-08-30T10:23:41;21.20;99.90
50067;DHT22;35952;52.524;13.340;2023-08-30T10:26:07;21.20;99.90
50067;DHT22;35952;52.524;13.340;2023-08-30T10:28:34;21.40;99.90
50067;DHT22;35952;52.524;13.340;2023-08-30T10:31:00;21.50;99.90
50067;DHT22;35952;52.524;13.340;2023-08-30T10:33:26;21.80;99.90
50067;DHT22;35952;52.524;13.340;2023-08-30T10:35:51;21.80;99.90
50067;DHT22;35952;52.524;13.340;2023-08-30T10:38:27;21.80;99.90
50067;DHT22;35952;52.524;13.340;2023-08-30T10:40:54;21.90;99.90
50067;DHT22;35952;52.524;13.340;2023-08-30T10:43:30;21.90;99.90
50067;DHT22;35952;52.524;13.340;2023-08-30T10:46:01;21.90;99.90
50067;DHT22;35952;52.524;13.340;2023-08-30T10:48:37;21.90;99.90
50067;DHT22;35952;52.524;13.340;2023-08-30T10:51:04;21.90;99.90
50067;DHT22;35952;52.524;13.340;2023-08-30T10:53:30;21.90;99.90
50067;DHT22;35952;52.524;13.340;2023-08-30T10:56:11;21.80;99.90
50067;DHT22;35952;52.524;13.340;2023-08-30T10:58:43;21.90;99.90
50067;DHT22;35952;52.524;13.340;2023-08-30T11:01:10;21.90;99.90
50067;DHT22;35952;52.524;13.340;2023-08-30T11:03:38;21.80;99.90
50067;DHT22;35952;52.524;13.340;2023-08-30T11:06:04;21.80;99.90
50067;DHT22;35952;52.524;13.340;2023-08-30T11:08:30;21.70;99.90
50067;DHT22;35952;52.524;13.340;2023-08-30T11:11:04;21.70;99.90
50067;DHT22;35952;52.524;13.340;2023-08-30T11:13:30;21.80;99.90
50067;DHT22;35952;52.524;13.340;2023-08-30T11:16:05;21.90;99.90
50067;DHT22;35952;52.524;13.340;2023-08-30T11:18:31;22.10;99.90
50067;DHT22;35952;52.524;13.340;2023-08-30T11:21:00;22.10;99.90
50067;DHT22;35952;52.524;13.340;2023-08-30T11:23:26;22.00;99.90
50067;DHT22;35952;52.524;13.340;2023-08-30T11:25:52;21.90;99.90
50067;DHT22;35952;52.524;13.340;2023-08-30T11:28:22;21.70;99.90
50067;DHT22;35952;52.524;13.340;2023-08-30T11:30:48;21.50;99.90
50067;DHT22;35952;52.524;13.340;2023-08-30T11:33:17;21.50;99.90
50067;DHT22;35952;52.524;13.340;2023-08-30T11:35:44;21.40;99.90
50067;DHT22;35952;52.524;13.340;2023-08-30T11:38:10;21.50;99.90
50067;DHT22;35952;52.524;13.340;2023-08-30T11:40:36;21.60;99.90
50067;DHT22;35952;52.524;13.340;2023-08-30T11:43:02;21.60;99.90
50067;DHT22;35952;52.524;13.340;2023-08-30T11:45:31;21.60;99.90
50067;DHT22;35952;52.524;13.340;2023-08-30T11:47:58;21.40;99.90
50067;DHT22;35952;52.524;13.340;2023-08-30T11:50:24;21.30;99.90
50067;DHT22;35952;52.524;13.340;2023-08-30T11:52:50;21.50;99.90
50067;DHT22;35952;52.524;13.340;2023-08-30T11:55:16;21.50;99.90
50067;DHT22;35952;52.524;13.340;2023-08-30T11:57:47;21.50;99.90
50067;DHT22;35952;52.524;13.340;2023-08-30T12:00:13;21.30;99.90
50067;DHT22;35952;52.524;13.340;2023-08-30T12:02:40;21.40;99.90
50067;DHT22;35952;52.524;13.340;2023-08-30T12:05:10;21.40;99.90
50067;DHT22;35952;52.524;13.340;2023-08-30T12:07:37;21.30;99.90
50067;DHT22;35952;52.524;13.340;2023-08-30T12:10:06;21.10;99.90
50067;DHT22;35952;52.524;13.340;2023-08-30T12:12:33;21.10;99.90
50067;DHT22;35952;52.524;13.340;2023-08-30T12:14:58;20.90;99.90
50067;DHT22;35952;52.524;13.340;2023-08-30T12:17:24;21.00;99.90
50067;DHT22;35952;52.524;13.340;2023-08-30T12:19:59;21.00;99.90
50067;DHT22;35952;52.524;13.340;2023-08-30T12:22:38;21.10;99.90
50067;DHT22;35952;52.524;13.340;2023-08-30T12:25:14;21.00;99.90
50067;DHT22;35952;52.524;13.340;2023-08-30T12:27:40;21.00;99.90
50067;DHT22;35952;52.524;13.340;2023-08-30T12:30:06;21.00;99.90
50067;DHT22;35952;52.524;13.340;2023-08-30T12:32:32;20.90;99.90
50067;DHT22;35952;52.524;13.340;2023-08-30T12:34:57;20.80;99.90
50067;DHT22;35952;52.524;13.340;2023-08-30T12:37:24;20.70;99.90
50067;DHT22;35952;52.524;13.340;2023-08-30T12:39:49;20.60;99.90
50067;DHT22;35952;52.524;13.340;2023-08-30T12:42:15;20.50;99.90
50067;DHT22;35952;52.524;13.340;2023-08-30T12:44:40;20.40;99.90
50067;DHT22;35952;52.524;13.340;2023-08-30T12:47:06;20.50;99.90
50067;DHT22;35952;52.524;13.340;2023-08-30T12:49:31;20.40;99.90
50067;DHT22;35952;52.524;13.340;2023-08-30T12:51:57;20.40;99.90
50067;DHT22;35952;52.524;13.340;2023-08-30T12:54:22;20.40;99.90
50067;DHT22;35952;52.524;13.340;2023-08-30T12:56:48;20.40;99.90
50067;DHT22;35952;52.524;13.340;2023-08-30T12:59:13;20.40;99.90
50067;DHT22;35952;52.524;13.340;2023-08-30T13:01:39;20.40;99.90
50067;DHT22;35952;52.524;13.340;2023-08-30T13:04:04;20.30;99.90
50067;DHT22;35952;52.524;13.340;2023-08-30T13:06:30;20.40;99.90
50067;DHT22;35952;52.524;13.340;2023-08-30T13:08:55;20.40;99.90
50067;DHT22;35952;52.524;13.340;2023-08-30T13:11:21;20.40;99.90
50067;DHT22;35952;52.524;13.340;2023-08-30T13:13:46;20.50;99.90
50067;DHT22;35952;52.524;13.340;2023-08-30T13:16:12;20.50;99.90
50067;DHT22;35952;52.524;13.340;2023-08-30T13:18:37;20.60;99.90
50067;DHT22;35952;52.524;13.340;2023-08-30T13:21:03;20.40;99.90
50067;DHT22;35952;52.524;13.340;2023-08-30T13:23:29;20.30;99.90
50067;DHT22;35952;52.524;13.340;2023-08-30T13:25:55;20.40;99.90
50067;DHT22;35952;52.524;13.340;2023-08-30T13:28:20;20.60;99.90
50067;DHT22;35952;52.524;13.340;2023-08-30T13:30:46;20.60;99.90
50067;DHT22;35952;52.524;13.340;2023-08-30T13:33:12;20.60;99.90
50067;DHT22;35952;52.524;13.340;2023-08-30T13:35:40;20.70;99.90
50067;DHT22;35952;52.524;13.340;2023-08-30T13:38:06;20.60;99.90
50067;DHT22;35952;52.524;13.340;2023-08-30T13:40:31;20.60;99.90
50067;DHT22;35952;52.524;13.340;2023-08-30T13:42:57;20.70;99.90
50067;DHT22;35952;52.524;13.340;2023-08-30T13:45:22;20.70;99.90
50067;DHT22;35952;52.524;13.340;2023-08-30T13:47:48;20.80;99.90
50067;DHT22;35952;52.524;13.340;2023-08-30T13:50:17;21.00;99.90
50067;DHT22;35952;52.524;13.340;2023-08-30T13:52:42;21.30;99.90
50067;DHT22;35952;52.524;13.340;2023-08-30T13:55:08;21.00;99.90
50067;DHT22;35952;52.524;13.340;2023-08-30T13:57:33;21.40;99.90
50067;DHT22;35952;52.524;13.340;2023-08-30T13:59:59;21.90;99.90
50067;DHT22;35952;52.524;13.340;2023-08-30T14:02:27;22.80;99.90
50067;DHT22;35952;52.524;13.340;2023-08-30T14:04:53;22.90;99.90
50067;DHT22;35952;52.524;13.340;2023-08-30T14:07:18;23.20;99.90
50067;DHT22;35952;52.524;13.340;2023-08-30T14:09:44;23.20;99.90
50067;DHT22;35952;52.524;13.340;2023-08-30T14:12:09;23.50;99.90
50067;DHT22;35952;52.524;13.340;2023-08-30T14:14:35;23.40;99.90
50067;DHT22;35952;52.524;13.340;2023-08-30T14:17:01;23.10;99.90
50067;DHT22;35952;52.524;13.340;2023-08-30T14:19:27;23.30;99.90
50067;DHT22;35952;52.524;13.340;2023-08-30T14:21:52;23.30;99.90
50067;DHT22;35952;52.524;13.340;2023-08-30T14:24:20;23.40;99.90
50067;DHT22;35952;52.524;13.340;2023-08-30T14:26:45;23.40;99.90
50067;DHT22;35952;52.524;13.340;2023-08-30T14:29:11;23.40;99.90
50067;DHT22;35952;52.524;13.340;2023-08-30T14:31:36;23.70;99.90
50067;DHT22;35952;52.524;13.340;2023-08-30T14:34:02;24.20;99.90
50067;DHT22;35952;52.524;13.340;2023-08-30T14:36:28;25.00;99.80
50067;DHT22;35952;52.524;13.340;2023-08-30T14:38:53;26.30;96.70
50067;DHT22;35952;52.524;13.340;2023-08-30T14:41:19;27.80;92.30
50067;DHT22;35952;52.524;13.340;2023-08-30T14:43:44;28.90;89.30
50067;DHT22;35952;52.524;13.340;2023-08-30T14:46:10;29.10;88.00
50067;DHT22;35952;52.524;13.340;2023-08-30T14:48:35;29.90;83.50
50067;DHT22;35952;52.524;13.340;2023-08-30T14:51:02;30.40;72.70
50067;DHT22;35952;52.524;13.340;2023-08-30T14:53:28;30.10;70.50
50067;DHT22;35952;52.524;13.340;2023-08-30T14:55:53;29.00;71.30
50067;DHT22;35952;52.524;13.340;2023-08-30T14:58:21;27.90;79.20
50067;DHT22;35952;52.524;13.340;2023-08-30T15:00:50;26.70;80.00
50067;DHT22;35952;52.524;13.340;2023-08-30T15:03:16;25.50;79.80
50067;DHT22;35952;52.524;13.340;2023-08-30T15:05:42;24.80;83.20
50067;DHT22;35952;52.524;13.340;2023-08-30T15:08:07;24.10;84.90
50067;DHT22;35952;52.524;13.340;2023-08-30T15:10:33;23.70;88.90
50067;DHT22;35952;52.524;13.340;2023-08-30T15:12:58;23.20;87.20
50067;DHT22;35952;52.524;13.340;2023-08-30T15:15:24;22.90;87.70
50067;DHT22;35952;52.524;13.340;2023-08-30T15:17:50;22.60;91.90